createdAt,value
2019-05-22T00:00:32.775Z,0.00
2019-05-22T00:01:32.683Z,0.00
2019-05-22T00:02:32.608Z,0.00
2019-05-22T00:03:32.526Z,0.00
2019-05-22T00:04:32.449Z,0.00
2019-05-22T00:05:32.373Z,0.00
2019-05-22T00:06:32.290Z,0.00
2019-05-22T00:07:32.213Z,0.00
2019-05-22T00:08:32.133Z,0.00
2019-05-22T00:09:32.055Z,0.00
2019-05-22T00:10:31.978Z,0.00
2019-05-22T00:11:31.894Z,0.00
2019-05-22T00:12:45.732Z,0.00
2019-05-22T00:13:31.743Z,0.00
2019-05-22T00:14:31.654Z,0.00
2019-05-22T00:15:31.595Z,0.00
2019-05-22T00:16:31.495Z,0.00
2019-05-22T00:17:31.416Z,0.00
2019-05-22T00:18:31.339Z,0.00
2019-05-22T00:19:31.267Z,0.00
2019-05-22T00:20:31.183Z,0.00
2019-05-22T00:21:31.105Z,0.00
2019-05-22T00:22:31.023Z,0.00
2019-05-22T00:23:30.949Z,0.00
2019-05-22T00:24:30.862Z,0.00
2019-05-22T00:25:33.155Z,0.00
2019-05-22T00:26:30.704Z,0.00
2019-05-22T00:27:30.628Z,0.00
2019-05-22T00:28:30.540Z,0.00
2019-05-22T00:29:30.483Z,0.00
2019-05-22T00:30:30.389Z,0.00
2019-05-22T00:31:30.311Z,0.00
2019-05-22T00:32:30.229Z,0.00
2019-05-22T00:33:30.143Z,0.00
2019-05-22T00:34:30.068Z,0.00
2019-05-22T00:35:29.992Z,0.00
2019-05-22T00:36:29.939Z,0.00
2019-05-22T00:37:29.831Z,0.00
2019-05-22T00:38:29.753Z,0.00
2019-05-22T00:39:29.676Z,0.00
2019-05-22T00:40:29.591Z,0.00
2019-05-22T00:41:29.511Z,0.00
2019-05-22T00:42:29.437Z,0.00
2019-05-22T00:43:29.359Z,0.00
2019-05-22T00:44:29.280Z,0.00
2019-05-22T00:45:29.199Z,0.00
2019-05-22T00:46:29.120Z,0.00
2019-05-22T00:47:29.041Z,0.00
2019-05-22T00:48:28.962Z,0.00
2019-05-22T00:49:28.917Z,0.00
2019-05-22T00:50:28.806Z,0.00
2019-05-22T00:51:28.721Z,0.00
2019-05-22T00:52:28.643Z,0.00
2019-05-22T00:53:28.570Z,0.00
2019-05-22T00:54:28.490Z,0.00
2019-05-22T00:55:28.408Z,0.00
2019-05-22T00:56:28.329Z,0.00
2019-05-22T00:57:28.246Z,0.00
2019-05-22T00:58:28.169Z,0.00
2019-05-22T00:59:28.092Z,0.00
2019-05-22T01:00:28.009Z,0.00
2019-05-22T01:01:27.933Z,0.00
2019-05-22T01:02:27.857Z,0.00
2019-05-22T01:03:27.769Z,0.00
2019-05-22T01:04:27.696Z,0.00
2019-05-22T01:05:27.615Z,0.00
2019-05-22T01:06:27.538Z,0.00
2019-05-22T01:07:27.456Z,0.00
2019-05-22T01:08:27.379Z,0.00
2019-05-22T01:09:27.301Z,0.00
2019-05-22T01:10:27.223Z,0.00
2019-05-22T01:11:27.152Z,0.00
2019-05-22T01:12:27.066Z,0.00
2019-05-22T01:13:26.983Z,0.00
2019-05-22T01:14:40.487Z,0.00
2019-05-22T01:15:26.828Z,0.00
2019-05-22T01:16:26.750Z,0.00
2019-05-22T01:17:26.669Z,0.00
2019-05-22T01:18:26.584Z,0.00
2019-05-22T01:19:26.510Z,0.00
2019-05-22T01:20:26.433Z,0.00
2019-05-22T01:21:26.364Z,0.00
2019-05-22T01:22:26.267Z,0.00
2019-05-22T01:23:26.192Z,0.00
2019-05-22T01:24:26.119Z,0.00
2019-05-22T01:25:26.036Z,0.00
2019-05-22T01:26:25.959Z,0.00
2019-05-22T01:27:25.875Z,0.00
2019-05-22T01:28:25.795Z,0.00
2019-05-22T01:29:25.715Z,0.00
2019-05-22T01:30:25.638Z,0.00
2019-05-22T01:31:25.557Z,0.00
2019-05-22T01:32:25.478Z,0.00
2019-05-22T01:33:25.397Z,0.00
2019-05-22T01:34:25.318Z,0.00
2019-05-22T01:35:25.239Z,0.00
2019-05-22T01:36:25.161Z,0.00
2019-05-22T01:37:25.078Z,0.00
2019-05-22T01:38:25.006Z,0.00
2019-05-22T01:39:24.920Z,0.00
2019-05-22T01:40:24.842Z,0.00
2019-05-22T01:41:24.785Z,0.00
2019-05-22T01:42:24.698Z,0.00
2019-05-22T01:43:24.606Z,0.00
2019-05-22T01:44:24.560Z,0.00
2019-05-22T01:45:24.446Z,0.00
2019-05-22T01:46:24.362Z,0.00
2019-05-22T01:47:24.285Z,0.00
2019-05-22T01:48:24.215Z,0.00
2019-05-22T01:49:24.130Z,0.00
2019-05-22T01:50:24.051Z,0.00
2019-05-22T01:51:23.968Z,0.00
2019-05-22T01:52:23.891Z,0.00
2019-05-22T01:53:23.815Z,0.00
2019-05-22T01:54:23.725Z,0.00
2019-05-22T01:55:23.663Z,0.00
2019-05-22T01:56:23.568Z,0.00
2019-05-22T01:57:23.491Z,0.00
2019-05-22T01:58:23.419Z,0.00
2019-05-22T01:59:23.332Z,0.00
2019-05-22T02:00:23.254Z,0.00
2019-05-22T02:01:23.175Z,0.00
2019-05-22T02:02:23.098Z,0.00
2019-05-22T02:03:23.016Z,0.00
2019-05-22T02:04:22.938Z,0.00
2019-05-22T02:05:22.861Z,0.00
2019-05-22T02:06:22.779Z,0.00
2019-05-22T02:07:22.699Z,0.00
2019-05-22T02:08:22.619Z,0.00
2019-05-22T02:09:22.537Z,0.00
2019-05-22T02:10:22.461Z,0.00
2019-05-22T02:11:22.381Z,0.00
2019-05-22T02:12:22.302Z,0.00
2019-05-22T02:13:22.216Z,0.00
2019-05-22T02:14:22.162Z,0.00
2019-05-22T02:15:22.069Z,0.00
2019-05-22T02:16:21.983Z,0.00
2019-05-22T02:17:21.902Z,0.00
2019-05-22T02:18:21.827Z,0.00
2019-05-22T02:19:21.750Z,0.00
2019-05-22T02:20:21.668Z,0.00
2019-05-22T02:21:21.592Z,0.00
2019-05-22T02:22:21.504Z,0.00
2019-05-22T02:23:21.428Z,0.00
2019-05-22T02:24:21.349Z,0.00
2019-05-22T02:25:21.273Z,0.00
2019-05-22T02:26:21.190Z,0.00
2019-05-22T02:27:21.125Z,0.00
2019-05-22T02:28:21.033Z,0.00
2019-05-22T02:29:20.951Z,0.00
2019-05-22T02:30:20.887Z,0.00
2019-05-22T02:31:20.794Z,0.00
2019-05-22T02:32:20.721Z,0.00
2019-05-22T02:33:20.632Z,0.00
2019-05-22T02:34:20.556Z,0.00
2019-05-22T02:35:20.480Z,0.00
2019-05-22T02:36:20.464Z,0.00
2019-05-22T02:37:20.323Z,0.00
2019-05-22T02:38:20.237Z,0.00
2019-05-22T02:39:20.158Z,0.00
2019-05-22T02:40:20.080Z,0.00
2019-05-22T02:41:20.004Z,0.00
2019-05-22T02:42:19.918Z,0.00
2019-05-22T02:43:19.840Z,0.00
2019-05-22T02:44:19.758Z,0.00
2019-05-22T02:45:19.678Z,0.00
2019-05-22T02:46:19.603Z,0.00
2019-05-22T02:47:21.076Z,0.00
2019-05-22T02:48:19.442Z,0.00
2019-05-22T02:49:19.357Z,0.00
2019-05-22T02:50:19.289Z,0.00
2019-05-22T02:51:19.202Z,0.00
2019-05-22T02:52:19.120Z,0.00
2019-05-22T02:53:19.048Z,0.00
2019-05-22T02:54:18.966Z,0.00
2019-05-22T02:55:18.884Z,0.00
2019-05-22T02:56:18.807Z,0.00
2019-05-22T02:57:18.734Z,0.00
2019-05-22T02:58:18.655Z,0.00
2019-05-22T02:59:18.568Z,0.00
2019-05-22T03:00:18.488Z,0.00
2019-05-22T03:01:18.408Z,0.00
2019-05-22T03:02:18.338Z,0.00
2019-05-22T03:03:18.247Z,0.00
2019-05-22T03:04:18.169Z,0.00
2019-05-22T03:05:18.091Z,4.00
2019-05-22T03:06:18.018Z,4.00
2019-05-22T03:07:17.934Z,4.00
2019-05-22T03:08:17.848Z,4.00
2019-05-22T03:09:17.777Z,4.00
2019-05-22T03:10:17.689Z,4.00
2019-05-22T03:11:17.612Z,4.00
2019-05-22T03:12:17.536Z,4.00
2019-05-22T03:13:17.459Z,8.00
2019-05-22T03:14:17.376Z,8.00
2019-05-22T03:15:17.297Z,8.00
2019-05-22T03:16:17.220Z,8.00
2019-05-22T03:17:17.145Z,12.00
2019-05-22T03:18:17.050Z,12.00
2019-05-22T03:19:16.980Z,12.00
2019-05-22T03:20:16.898Z,12.00
2019-05-22T03:21:16.816Z,12.00
2019-05-22T03:22:16.737Z,8.00
2019-05-22T03:23:16.660Z,12.00
2019-05-22T03:24:16.581Z,12.00
2019-05-22T03:25:16.504Z,12.00
2019-05-22T03:26:16.452Z,16.00
2019-05-22T03:27:16.341Z,16.00
2019-05-22T03:28:16.262Z,24.00
2019-05-22T03:29:16.183Z,24.00
2019-05-22T03:30:16.100Z,24.00
2019-05-22T03:31:16.148Z,28.00
2019-05-22T03:32:15.943Z,32.00
2019-05-22T03:33:15.864Z,36.00
2019-05-22T03:34:15.821Z,36.00
2019-05-22T03:35:15.747Z,32.00
2019-05-22T03:36:15.633Z,32.00
2019-05-22T03:37:15.546Z,32.00
2019-05-22T03:38:15.467Z,32.00
2019-05-22T03:39:15.384Z,36.00
2019-05-22T03:40:15.304Z,32.00
2019-05-22T03:41:15.228Z,40.00
2019-05-22T03:42:15.146Z,36.00
2019-05-22T03:43:15.066Z,40.00
2019-05-22T03:44:14.983Z,40.00
2019-05-22T03:45:14.932Z,44.00
2019-05-22T03:46:14.826Z,48.00
2019-05-22T03:47:14.754Z,52.00
2019-05-22T03:48:14.672Z,64.00
2019-05-22T03:49:28.954Z,56.00
2019-05-22T03:50:14.510Z,64.00
2019-05-22T03:51:14.438Z,68.00
2019-05-22T03:52:14.353Z,68.00
2019-05-22T03:53:14.271Z,80.00
2019-05-22T03:54:14.188Z,80.00
2019-05-22T03:55:14.113Z,92.00
2019-05-22T03:56:14.030Z,96.00
2019-05-22T03:57:13.952Z,92.00
2019-05-22T03:58:13.876Z,84.00
2019-05-22T03:59:13.845Z,84.00
2019-05-22T04:00:13.717Z,92.00
2019-05-22T04:01:13.677Z,88.00
2019-05-22T04:02:13.558Z,80.00
2019-05-22T04:03:13.478Z,92.00
2019-05-22T04:04:13.419Z,96.00
2019-05-22T04:05:13.321Z,112.00
2019-05-22T04:06:13.233Z,112.00
2019-05-22T04:07:13.159Z,124.00
2019-05-22T04:08:13.079Z,148.00
2019-05-22T04:09:13.004Z,172.00
2019-05-22T04:10:12.916Z,172.00
2019-05-22T04:11:12.838Z,160.00
2019-05-22T04:12:12.762Z,128.00
2019-05-22T04:13:12.720Z,132.00
2019-05-22T04:14:12.649Z,144.00
2019-05-22T04:15:12.522Z,140.00
2019-05-22T04:16:12.437Z,148.00
2019-05-22T04:17:12.361Z,172.00
2019-05-22T04:18:12.285Z,160.00
2019-05-22T04:19:12.201Z,156.00
2019-05-22T04:20:12.124Z,132.00
2019-05-22T04:21:12.047Z,144.00
2019-05-22T04:22:11.968Z,152.00
2019-05-22T04:23:11.886Z,144.00
2019-05-22T04:24:11.810Z,144.00
2019-05-22T04:25:11.724Z,132.00
2019-05-22T04:26:11.646Z,144.00
2019-05-22T04:27:11.570Z,132.00
2019-05-22T04:28:11.487Z,128.00
2019-05-22T04:29:11.403Z,140.00
2019-05-22T04:30:11.326Z,156.00
2019-05-22T04:31:11.248Z,152.00
2019-05-22T04:32:11.263Z,164.00
2019-05-22T04:33:11.088Z,164.00
2019-05-22T04:34:11.008Z,184.00
2019-05-22T04:35:10.935Z,200.00
2019-05-22T04:36:10.842Z,212.00
2019-05-22T04:37:10.777Z,216.00
2019-05-22T04:38:10.696Z,208.00
2019-05-22T04:39:10.611Z,236.00
2019-05-22T04:40:10.530Z,228.00
2019-05-22T04:41:10.456Z,220.00
2019-05-22T04:42:10.367Z,224.00
2019-05-22T04:43:10.289Z,256.00
2019-05-22T04:44:10.213Z,232.00
2019-05-22T04:45:10.177Z,220.00
2019-05-22T04:46:10.095Z,212.00
2019-05-22T04:47:09.981Z,296.00
2019-05-22T04:48:09.891Z,284.00
2019-05-22T04:49:09.810Z,240.00
2019-05-22T04:50:09.749Z,264.00
2019-05-22T04:51:09.715Z,280.00
2019-05-22T04:52:09.572Z,284.00
2019-05-22T04:53:09.492Z,296.00
2019-05-22T04:54:09.416Z,308.00
2019-05-22T04:55:09.336Z,308.00
2019-05-22T04:56:09.251Z,308.00
2019-05-22T04:57:09.174Z,360.00
2019-05-22T04:58:09.094Z,344.00
2019-05-22T04:59:09.013Z,348.00
2019-05-22T05:00:08.935Z,376.00
2019-05-22T05:01:08.857Z,384.00
2019-05-22T05:02:08.775Z,348.00
2019-05-22T05:03:08.699Z,336.00
2019-05-22T05:04:08.614Z,332.00
2019-05-22T05:05:08.537Z,360.00
2019-05-22T05:06:08.457Z,468.00
2019-05-22T05:07:08.473Z,468.00
2019-05-22T05:08:08.298Z,436.00
2019-05-22T05:09:08.219Z,472.00
2019-05-22T05:10:08.136Z,452.00
2019-05-22T05:11:08.062Z,452.00
2019-05-22T05:12:07.981Z,516.00
2019-05-22T05:13:07.904Z,524.00
2019-05-22T05:14:07.820Z,572.00
2019-05-22T05:15:07.742Z,608.00
2019-05-22T05:16:07.663Z,508.00
2019-05-22T05:17:07.588Z,484.00
2019-05-22T05:18:07.503Z,556.00
2019-05-22T05:19:07.424Z,684.00
2019-05-22T05:20:20.200Z,600.00
2019-05-22T05:21:07.263Z,584.00
2019-05-22T05:22:07.183Z,568.00
2019-05-22T05:23:07.102Z,632.00
2019-05-22T05:24:07.023Z,600.00
2019-05-22T05:25:06.942Z,560.00
2019-05-22T05:26:06.866Z,424.00
2019-05-22T05:27:07.196Z,452.00
2019-05-22T05:28:06.706Z,492.00
2019-05-22T05:29:06.626Z,552.00
2019-05-22T05:30:15.247Z,716.00
2019-05-22T05:32:11.930Z,676.00
2019-05-22T05:33:11.415Z,664.00
2019-05-22T05:35:05.698Z,788.00
2019-05-22T05:36:05.599Z,808.00
2019-05-22T05:38:10.935Z,812.00
2019-05-22T05:39:10.854Z,828.00
2019-05-22T05:41:04.109Z,1148.00
2019-05-22T05:42:04.018Z,1060.00
2019-05-22T05:44:08.332Z,864.00
2019-05-22T05:45:08.248Z,712.00
2019-05-22T05:47:12.533Z,604.00
2019-05-22T05:48:12.461Z,572.00
2019-05-22T05:49:12.369Z,484.00
2019-05-22T05:50:12.290Z,488.00
2019-05-22T05:51:12.212Z,444.00
2019-05-22T05:52:12.132Z,432.00
2019-05-22T05:53:12.049Z,452.00
2019-05-22T05:54:11.969Z,604.00
2019-05-22T05:55:11.893Z,520.00
2019-05-22T05:56:11.815Z,492.00
2019-05-22T05:57:11.728Z,492.00
2019-05-22T05:58:11.647Z,768.00
2019-05-22T05:59:11.575Z,692.00
2019-05-22T06:00:11.491Z,532.00
2019-05-22T06:01:11.411Z,556.00
2019-05-22T06:02:11.331Z,632.00
2019-05-22T06:03:11.254Z,564.00
2019-05-22T06:04:11.168Z,740.00
2019-05-22T06:05:11.097Z,1068.00
2019-05-22T06:06:11.014Z,892.00
2019-05-22T06:07:10.947Z,780.00
2019-05-22T06:08:10.855Z,792.00
2019-05-22T06:09:10.782Z,664.00
2019-05-22T06:10:10.694Z,768.00
2019-05-22T06:11:10.616Z,760.00
2019-05-22T06:12:10.543Z,1088.00
2019-05-22T06:13:10.457Z,984.00
2019-05-22T06:14:10.380Z,724.00
2019-05-22T06:15:10.300Z,676.00
2019-05-22T06:16:10.215Z,780.00
2019-05-22T06:17:10.135Z,776.00
2019-05-22T06:18:10.093Z,780.00
2019-05-22T06:19:09.976Z,896.00
2019-05-22T06:20:09.895Z,824.00
2019-05-22T06:21:09.872Z,884.00
2019-05-22T06:22:09.737Z,828.00
2019-05-22T06:23:09.660Z,804.00
2019-05-22T06:24:09.580Z,820.00
2019-05-22T06:25:09.639Z,884.00
2019-05-22T06:26:09.440Z,1008.00
2019-05-22T06:27:09.340Z,904.00
2019-05-22T06:28:09.271Z,1276.00
2019-05-22T06:29:09.177Z,1156.00
2019-05-22T06:30:09.097Z,1112.00
2019-05-22T06:31:09.016Z,1284.00
2019-05-22T06:32:08.939Z,1408.00
2019-05-22T06:33:08.862Z,1240.00
2019-05-22T06:34:08.777Z,1148.00
2019-05-22T06:35:08.702Z,1040.00
2019-05-22T06:36:08.625Z,1032.00
2019-05-22T06:37:08.578Z,1028.00
2019-05-22T06:38:08.462Z,1032.00
2019-05-22T06:39:08.378Z,1260.00
2019-05-22T06:40:08.302Z,1216.00
2019-05-22T06:41:08.222Z,1216.00
2019-05-22T06:42:08.150Z,1284.00
2019-05-22T06:43:08.061Z,1476.00
2019-05-22T06:44:07.988Z,1856.00
2019-05-22T06:45:07.912Z,1108.00
2019-05-22T06:46:07.824Z,1144.00
2019-05-22T06:47:07.743Z,1224.00
2019-05-22T06:48:07.664Z,1392.00
2019-05-22T06:49:07.595Z,1336.00
2019-05-22T06:50:07.518Z,1592.00
2019-05-22T06:51:19.160Z,1520.00
2019-05-22T06:52:07.351Z,1372.00
2019-05-22T06:53:09.770Z,1536.00
2019-05-22T06:54:07.187Z,1216.00
2019-05-22T06:55:07.104Z,1208.00
2019-05-22T06:56:07.024Z,1536.00
2019-05-22T06:57:06.951Z,1840.00
2019-05-22T06:58:06.866Z,1996.00
2019-05-22T06:59:06.791Z,1380.00
2019-05-22T07:00:14.194Z,1464.00
2019-05-22T07:01:06.626Z,1608.00
2019-05-22T07:02:06.549Z,1760.00
2019-05-22T07:03:06.468Z,1804.00
2019-05-22T07:04:06.389Z,1720.00
2019-05-22T07:05:06.338Z,1500.00
2019-05-22T07:06:06.229Z,1408.00
2019-05-22T07:07:06.157Z,1392.00
2019-05-22T07:08:06.078Z,1500.00
2019-05-22T07:09:05.988Z,1800.00
2019-05-22T07:10:05.917Z,1664.00
2019-05-22T07:11:05.835Z,2260.00
2019-05-22T07:12:05.756Z,2400.00
2019-05-22T07:13:05.672Z,1588.00
2019-05-22T07:14:05.592Z,1484.00
2019-05-22T07:15:05.541Z,1516.00
2019-05-22T07:16:05.436Z,1244.00
2019-05-22T07:17:05.354Z,1328.00
2019-05-22T07:18:05.277Z,1080.00
2019-05-22T07:19:05.198Z,988.00
2019-05-22T07:20:05.115Z,1120.00
2019-05-22T07:21:05.042Z,1332.00
2019-05-22T07:22:04.954Z,1296.00
2019-05-22T07:23:04.877Z,1148.00
2019-05-22T07:24:04.859Z,1192.00
2019-05-22T07:25:04.719Z,1260.00
2019-05-22T07:26:04.641Z,1244.00
2019-05-22T07:27:04.558Z,1224.00
2019-05-22T07:28:04.478Z,1216.00
2019-05-22T07:29:05.180Z,1228.00
2019-05-22T07:30:04.413Z,1364.00
2019-05-22T07:31:04.260Z,1324.00
2019-05-22T07:32:04.209Z,1284.00
2019-05-22T07:33:04.087Z,1452.00
2019-05-22T07:34:04.006Z,1304.00
2019-05-22T07:35:03.924Z,1224.00
2019-05-22T07:36:16.054Z,1296.00
2019-05-22T07:37:03.799Z,1436.00
2019-05-22T07:38:03.687Z,1480.00
2019-05-22T07:39:03.608Z,1456.00
2019-05-22T07:40:03.530Z,1452.00
2019-05-22T07:41:03.452Z,1524.00
2019-05-22T07:42:03.368Z,1532.00
2019-05-22T07:43:03.338Z,1176.00
2019-05-22T07:44:03.211Z,1172.00
2019-05-22T07:45:03.142Z,1172.00
2019-05-22T07:46:03.059Z,1148.00
2019-05-22T07:47:02.971Z,1220.00
2019-05-22T07:48:03.016Z,1444.00
2019-05-22T07:49:02.813Z,1444.00
2019-05-22T07:50:02.784Z,1332.00
2019-05-22T07:51:02.663Z,1316.00
2019-05-22T07:52:02.577Z,1528.00
2019-05-22T07:53:02.505Z,2068.00
2019-05-22T07:54:02.417Z,2040.00
2019-05-22T07:55:02.337Z,1844.00
2019-05-22T07:56:02.269Z,1628.00
2019-05-22T07:57:02.183Z,1692.00
2019-05-22T07:58:02.098Z,1984.00
2019-05-22T07:59:02.019Z,1900.00
2019-05-22T08:00:01.940Z,1672.00
2019-05-22T08:01:01.860Z,1368.00
2019-05-22T08:02:01.781Z,1312.00
2019-05-22T08:03:01.703Z,1404.00
2019-05-22T08:04:01.623Z,1220.00
2019-05-22T08:05:01.541Z,1192.00
2019-05-22T08:06:01.610Z,1288.00
2019-05-22T08:07:01.388Z,1152.00
2019-05-22T08:08:01.375Z,1056.00
2019-05-22T08:09:01.257Z,1060.00
2019-05-22T08:10:01.145Z,1092.00
2019-05-22T08:11:01.067Z,1172.00
2019-05-22T08:12:00.985Z,1208.00
2019-05-22T08:13:00.906Z,1372.00
2019-05-22T08:14:00.835Z,1760.00
2019-05-22T08:15:00.746Z,2204.00
2019-05-22T08:16:00.671Z,1824.00
2019-05-22T08:17:00.593Z,1504.00
2019-05-22T08:18:00.511Z,1592.00
2019-05-22T08:19:00.436Z,1644.00
2019-05-22T08:20:00.356Z,1892.00
2019-05-22T08:21:00.270Z,1516.00
2019-05-22T08:22:07.215Z,2308.00
2019-05-22T08:23:00.115Z,2560.00
2019-05-22T08:24:00.043Z,2716.00
2019-05-22T08:24:59.960Z,2512.00
2019-05-22T08:25:59.886Z,2352.00
2019-05-22T08:26:59.801Z,2096.00
2019-05-22T08:27:59.717Z,2000.00
2019-05-22T08:28:59.638Z,2308.00
2019-05-22T08:29:59.557Z,2216.00
2019-05-22T08:30:59.478Z,2004.00
2019-05-22T08:31:59.399Z,1784.00
2019-05-22T08:32:59.320Z,2156.00
2019-05-22T08:33:59.238Z,2188.00
2019-05-22T08:34:59.164Z,2284.00
2019-05-22T08:35:59.312Z,2172.00
2019-05-22T08:36:59.113Z,1960.00
2019-05-22T08:37:58.986Z,2160.00
2019-05-22T08:38:58.851Z,2212.00
2019-05-22T08:39:58.765Z,2352.00
2019-05-22T08:40:58.686Z,2464.00
2019-05-22T08:41:58.644Z,2728.00
2019-05-22T08:42:58.588Z,2352.00
2019-05-22T08:44:15.291Z,2196.00
2019-05-22T08:44:58.365Z,2284.00
2019-05-22T08:45:58.285Z,2244.00
2019-05-22T08:46:58.220Z,2320.00
2019-05-22T08:47:58.154Z,2352.00
2019-05-22T08:48:58.043Z,2528.00
2019-05-22T08:49:57.971Z,2548.00
2019-05-22T08:50:57.890Z,2152.00
2019-05-22T08:51:57.809Z,2168.00
2019-05-22T08:52:57.732Z,2568.00
2019-05-22T08:53:57.657Z,2520.00
2019-05-22T08:54:57.574Z,2384.00
2019-05-22T08:55:57.494Z,2276.00
2019-05-22T08:56:57.414Z,2740.00
2019-05-22T08:57:57.334Z,2480.00
2019-05-22T08:58:57.250Z,2200.00
2019-05-22T08:59:57.177Z,2436.00
2019-05-22T09:00:57.103Z,2536.00
2019-05-22T09:01:57.020Z,2744.00
2019-05-22T09:02:56.937Z,2848.00
2019-05-22T09:03:56.860Z,2968.00
2019-05-22T09:04:56.781Z,3124.00
2019-05-22T09:05:56.704Z,2940.00
2019-05-22T09:06:56.620Z,3212.00
2019-05-22T09:07:56.542Z,3756.00
2019-05-22T09:08:56.468Z,3864.00
2019-05-22T09:09:56.382Z,4016.00
2019-05-22T09:10:56.307Z,4008.00
2019-05-22T09:11:56.223Z,3768.00
2019-05-22T09:12:56.145Z,3788.00
2019-05-22T09:13:56.067Z,3992.00
2019-05-22T09:14:55.987Z,4080.00
2019-05-22T09:15:55.909Z,3656.00
2019-05-22T09:16:55.833Z,3284.00
2019-05-22T09:17:55.747Z,3412.00
2019-05-22T09:18:55.667Z,3796.00
2019-05-22T09:19:55.590Z,3836.00
2019-05-22T09:20:55.511Z,3792.00
2019-05-22T09:21:55.432Z,3956.00
2019-05-22T09:22:55.354Z,4168.00
2019-05-22T09:23:55.280Z,4228.00
2019-05-22T09:24:55.203Z,4308.00
2019-05-22T09:25:55.116Z,4096.00
2019-05-22T09:26:55.037Z,3928.00
2019-05-22T09:27:54.959Z,4320.00
2019-05-22T09:28:54.879Z,3928.00
2019-05-22T09:29:54.801Z,3268.00
2019-05-22T09:30:54.722Z,4332.00
2019-05-22T09:31:54.644Z,4092.00
2019-05-22T09:32:54.564Z,3528.00
2019-05-22T09:33:54.485Z,3728.00
2019-05-22T09:34:54.424Z,4192.00
2019-05-22T09:35:54.324Z,3832.00
2019-05-22T09:36:54.247Z,3648.00
2019-05-22T09:37:54.171Z,3608.00
2019-05-22T09:38:54.091Z,3196.00
2019-05-22T09:39:54.007Z,3108.00
2019-05-22T09:40:53.930Z,3288.00
2019-05-22T09:41:53.849Z,3028.00
2019-05-22T09:42:53.774Z,3424.00
2019-05-22T09:43:53.693Z,3864.00
2019-05-22T09:44:53.607Z,3960.00
2019-05-22T09:45:53.535Z,3868.00
2019-05-22T09:46:53.458Z,3576.00
2019-05-22T09:47:53.399Z,3840.00
2019-05-22T09:48:53.296Z,4608.00
2019-05-22T09:49:53.214Z,4076.00
2019-05-22T09:50:53.139Z,3760.00
2019-05-22T09:51:53.064Z,3772.00
2019-05-22T09:52:57.551Z,3248.00
2019-05-22T09:53:52.899Z,3220.00
2019-05-22T09:54:52.820Z,3596.00
2019-05-22T09:55:52.754Z,3160.00
2019-05-22T09:56:52.662Z,3556.00
2019-05-22T09:57:52.588Z,3416.00
2019-05-22T09:58:52.506Z,2660.00
2019-05-22T09:59:52.425Z,3200.00
2019-05-22T10:00:52.351Z,3124.00
2019-05-22T10:01:52.266Z,2676.00
2019-05-22T10:02:52.188Z,3348.00
2019-05-22T10:03:52.110Z,3584.00
2019-05-22T10:04:52.030Z,3608.00
2019-05-22T10:05:52.072Z,3596.00
2019-05-22T10:06:51.871Z,3444.00
2019-05-22T10:08:00.689Z,3376.00
2019-05-22T10:08:51.728Z,3196.00
2019-05-22T10:09:51.642Z,3616.00
2019-05-22T10:10:51.561Z,4136.00
2019-05-22T10:11:51.479Z,3832.00
2019-05-22T10:12:51.397Z,4404.00
2019-05-22T10:13:51.375Z,4620.00
2019-05-22T10:14:51.278Z,4068.00
2019-05-22T10:15:51.162Z,4340.00
2019-05-22T10:16:51.083Z,3464.00
2019-05-22T10:17:51.005Z,3160.00
2019-05-22T10:18:53.418Z,2952.00
2019-05-22T10:19:50.846Z,2576.00
2019-05-22T10:20:50.773Z,2756.00
2019-05-22T10:21:50.695Z,2328.00
2019-05-22T10:22:50.615Z,2420.00
2019-05-22T10:23:50.534Z,2912.00
2019-05-22T10:24:51.613Z,2880.00
2019-05-22T10:25:50.373Z,2684.00
2019-05-22T10:26:50.293Z,2836.00
2019-05-22T10:27:50.237Z,3372.00
2019-05-22T10:28:50.168Z,4324.00
2019-05-22T10:29:50.055Z,4568.00
2019-05-22T10:30:49.987Z,4400.00
2019-05-22T10:31:49.898Z,4772.00
2019-05-22T10:32:49.818Z,3872.00
2019-05-22T10:33:52.070Z,4152.00
2019-05-22T10:34:49.659Z,3508.00
2019-05-22T10:35:49.582Z,3144.00
2019-05-22T10:36:49.504Z,3308.00
2019-05-22T10:37:49.427Z,3156.00
2019-05-22T10:38:49.346Z,2532.00
2019-05-22T10:39:49.269Z,2340.00
2019-05-22T10:40:49.183Z,2416.00
2019-05-22T10:41:49.108Z,2868.00
2019-05-22T10:42:49.032Z,3600.00
2019-05-22T10:43:48.951Z,4140.00
2019-05-22T10:44:48.869Z,4180.00
2019-05-22T10:45:48.791Z,4320.00
2019-05-22T10:46:48.725Z,4880.00
2019-05-22T10:47:48.637Z,5116.00
2019-05-22T10:48:48.553Z,5564.00
2019-05-22T10:49:48.480Z,5888.00
2019-05-22T10:50:48.403Z,6076.00
2019-05-22T10:51:48.321Z,5988.00
2019-05-22T10:52:53.730Z,6232.00
2019-05-22T10:53:48.161Z,8000.00
2019-05-22T10:54:48.084Z,9304.00
2019-05-22T10:55:48.007Z,9344.00
2019-05-22T10:56:47.926Z,7896.00
2019-05-22T10:57:47.850Z,6112.00
2019-05-22T10:58:47.768Z,5072.00
2019-05-22T10:59:47.690Z,4120.00
2019-05-22T11:00:47.609Z,3460.00
2019-05-22T11:01:47.544Z,3048.00
2019-05-22T11:02:47.451Z,2852.00
2019-05-22T11:03:47.374Z,2824.00
2019-05-22T11:04:47.298Z,2804.00
2019-05-22T11:06:03.842Z,2584.00
2019-05-22T11:06:47.143Z,2788.00
2019-05-22T11:07:47.086Z,3132.00
2019-05-22T11:08:46.984Z,3156.00
2019-05-22T11:09:46.901Z,3728.00
2019-05-22T11:10:46.847Z,4796.00
2019-05-22T11:11:46.744Z,4320.00
2019-05-22T11:12:46.666Z,3508.00
2019-05-22T11:14:00.751Z,2788.00
2019-05-22T11:14:46.510Z,2068.00
2019-05-22T11:15:46.430Z,2188.00
2019-05-22T11:16:46.352Z,2120.00
2019-05-22T11:17:46.273Z,1908.00
2019-05-22T11:18:46.196Z,2396.00
2019-05-22T11:19:46.117Z,3976.00
2019-05-22T11:20:46.039Z,6632.00
2019-05-22T11:21:45.965Z,7748.00
2019-05-22T11:22:45.880Z,8380.00
2019-05-22T11:23:52.140Z,8896.00
2019-05-22T11:24:45.718Z,8516.00
2019-05-22T11:25:45.646Z,7660.00
2019-05-22T11:26:45.567Z,6792.00
2019-05-22T11:27:45.487Z,8288.00
2019-05-22T11:28:45.411Z,9420.00
2019-05-22T11:29:45.393Z,8652.00
2019-05-22T11:30:52.903Z,8504.00
2019-05-22T11:32:49.577Z,8912.00
2019-05-22T11:33:49.465Z,11272.00
2019-05-22T11:35:53.785Z,6712.00
2019-05-22T11:36:53.692Z,5344.00
2019-05-22T11:38:58.031Z,9372.00
2019-05-22T11:39:57.916Z,9688.00
2019-05-22T11:41:52.197Z,9420.00
2019-05-22T11:42:52.133Z,7976.00
2019-05-22T11:43:52.039Z,5928.00
2019-05-22T11:44:51.964Z,7692.00
2019-05-22T11:45:51.890Z,8308.00
2019-05-22T11:46:51.813Z,6820.00
2019-05-22T11:47:51.734Z,6480.00
2019-05-22T11:48:51.655Z,6228.00
2019-05-22T11:49:51.578Z,5644.00
2019-05-22T11:50:51.497Z,6988.00
2019-05-22T11:51:51.424Z,7132.00
2019-05-22T11:52:51.343Z,7204.00
2019-05-22T11:54:07.425Z,6324.00
2019-05-22T11:54:51.190Z,5852.00
2019-05-22T11:55:51.106Z,6260.00
2019-05-22T11:56:50.931Z,6832.00
2019-05-22T11:57:50.956Z,6608.00
2019-05-22T11:58:50.781Z,5840.00
2019-05-22T11:59:50.728Z,6140.00
2019-05-22T12:00:50.649Z,5696.00
2019-05-22T12:01:50.587Z,4448.00
2019-05-22T12:02:50.461Z,5160.00
2019-05-22T12:03:50.406Z,5280.00
2019-05-22T12:04:50.313Z,5260.00
2019-05-22T12:05:50.271Z,5196.00
2019-05-22T12:06:53.543Z,4436.00
2019-05-22T12:07:50.088Z,5008.00
2019-05-22T12:08:50.019Z,6820.00
2019-05-22T12:09:49.916Z,6352.00
2019-05-22T12:10:49.838Z,5836.00
2019-05-22T12:11:49.784Z,6108.00
2019-05-22T12:12:49.722Z,5320.00
2019-05-22T12:13:49.605Z,4524.00
2019-05-22T12:14:49.554Z,5284.00
2019-05-22T12:15:49.469Z,5200.00
2019-05-22T12:16:52.914Z,5100.00
2019-05-22T12:17:49.312Z,5544.00
2019-05-22T12:18:49.230Z,5492.00
2019-05-22T12:19:49.144Z,5060.00
2019-05-22T12:20:49.232Z,4084.00
2019-05-22T12:21:48.980Z,4036.00
2019-05-22T12:22:49.011Z,4364.00
2019-05-22T12:23:48.822Z,3892.00
2019-05-22T12:24:48.760Z,3432.00
2019-05-22T12:25:48.677Z,2900.00
2019-05-22T12:26:48.589Z,2660.00
2019-05-22T12:27:48.522Z,2260.00
2019-05-22T12:28:48.538Z,2056.00
2019-05-22T12:29:48.457Z,2404.00
2019-05-22T12:30:48.394Z,2248.00
2019-05-22T12:31:48.205Z,2156.00
2019-05-22T12:32:48.233Z,2316.00
2019-05-22T12:33:48.043Z,2648.00
2019-05-22T12:34:49.536Z,2868.00
2019-05-22T12:35:47.914Z,2660.00
2019-05-22T12:36:51.208Z,2440.00
2019-05-22T12:37:47.728Z,2508.00
2019-05-22T12:38:47.653Z,2456.00
2019-05-22T12:39:47.583Z,2196.00